Accueil
METAR-TAF:

METAR-TAF

Aéroports :

Chongqing, Chine

Aéroport international de Chongqing

latitude: 29-31N, longitude: 106-29E, altitude: 351 m

Observation

Le bulletin a été fait il y a 48 minutes, à 08:00 UTC
Vent 4 kt de direction variable
Température 38°C
Humidité 35%
Pression 1002 hPa
Visibilité 10 km ou plus
Quelques nuages à une hauteur de 4000 ft, Cumulus congestus.
Nuages épars à une hauteur de 4000 ft

METAR: ZUCK 240800Z VRB02MPS 9999 FEW040TCU SCT040 38/20 Q1002 NOSIG

Heure: 16:48 (08:48 UTC)

Prévision

Le bulletin a été fait il y a 5 heures et 45 minutes, à 03:03 UTC
Prévision valable du 24 à 06 UTC au 25 à 06 UTC
Vent 6 kt de sud/sud-est
Visibilité: 6000 m
Nuages épars à une hauteur de 5000 ft

TAF: ZUCK 240303Z 2406/2506 15003MPS 6000 SCT050 TX38/2407Z TN28/2421Z

Observations et prévisions météorologiques de plus de 4000 aéroports (messages METAR et TAF).

Les stations disponibles sont représentées par des disques jaunes et rouges sur la carte.

Passer la souris dessus pour voir le nom de la station.

Cliquer dessus pour voir les observations et prévisions météorologiques.

Pour changer de carte: cliquez sur les boutons verts avec une croix noire pour zoomer, sur le bouton vert avec un tiret pour effectuer un zoom arrière, ou sur les flèches vertes pour les cartes adjacentes.


METAR-TAF: